createdAt,value
2019-02-09T00:00:37.426Z,98561.14
2019-02-09T00:03:10.516Z,98561.14
2019-02-09T00:05:43.205Z,98558.53
2019-02-09T00:08:16.492Z,98549.36
2019-02-09T00:10:50.382Z,98547.03
2019-02-09T00:13:24.410Z,98550.17
2019-02-09T00:15:58.413Z,98544.42
2019-02-09T00:18:31.407Z,98547.38
2019-02-09T00:21:02.977Z,98529.09
2019-02-09T00:23:34.370Z,98532.02
2019-02-09T00:26:07.584Z,98524.98
2019-02-09T00:28:38.845Z,98528.58
2019-02-09T00:31:10.247Z,98528.09
2019-02-09T00:33:41.519Z,98524.51
2019-02-09T00:36:14.534Z,98522.70
2019-02-09T00:38:48.970Z,98515.62
2019-02-09T00:41:22.571Z,98516.95
2019-02-09T00:43:53.911Z,98525.13
2019-02-09T00:46:27.409Z,98525.31
2019-02-09T00:48:58.658Z,98516.66
2019-02-09T00:51:32.655Z,98511.12
2019-02-09T00:54:06.694Z,98509.14
2019-02-09T00:56:38.463Z,98515.00
2019-02-09T00:59:11.678Z,98520.28
2019-02-09T01:01:44.595Z,98510.10
2019-02-09T01:04:17.790Z,98505.69
2019-02-09T01:06:51.043Z,98505.36
2019-02-09T01:09:23.879Z,98499.98
2019-02-09T01:11:57.813Z,98493.93
2019-02-09T01:14:29.032Z,98499.98
2019-02-09T01:17:02.804Z,98490.83
2019-02-09T01:19:36.842Z,98483.95
2019-02-09T01:22:10.839Z,98479.38
2019-02-09T01:24:42.103Z,98475.47
2019-02-09T01:27:15.691Z,98480.08
2019-02-09T01:29:49.873Z,98481.88
2019-02-09T01:32:23.865Z,98472.23
2019-02-09T01:34:56.084Z,98468.93
2019-02-09T01:37:28.903Z,98467.27
2019-02-09T01:40:00.206Z,98462.81
2019-02-09T01:42:32.204Z,98465.27
2019-02-09T01:45:05.497Z,98468.84
2019-02-09T01:47:37.844Z,98466.80
2019-02-09T01:50:11.975Z,98466.10
2019-02-09T01:52:45.150Z,98459.70
2019-02-09T01:55:18.797Z,98449.22
2019-02-09T01:57:51.953Z,98445.16
2019-02-09T02:00:29.255Z,98453.62
2019-02-09T02:03:02.298Z,98443.86
2019-02-09T02:05:34.101Z,98450.90
2019-02-09T02:08:07.840Z,98442.49
2019-02-09T02:10:39.594Z,98438.70
2019-02-09T02:13:12.862Z,98427.82
2019-02-09T02:15:45.001Z,98399.95
2019-02-09T02:18:17.071Z,98422.58
2019-02-09T02:20:48.337Z,98426.65
2019-02-09T02:23:22.047Z,98419.12
2019-02-09T02:25:53.984Z,98416.58
2019-02-09T02:28:25.999Z,98421.45
2019-02-09T02:30:59.957Z,98417.98
2019-02-09T02:33:31.241Z,98415.63
2019-02-09T02:36:03.510Z,98413.34
2019-02-09T02:38:36.152Z,98408.41
2019-02-09T02:41:08.183Z,98400.41
2019-02-09T02:43:39.445Z,98408.46
2019-02-09T02:46:12.156Z,98405.65
2019-02-09T02:48:43.673Z,98409.34
2019-02-09T02:51:15.016Z,98394.09
2019-02-09T02:53:48.236Z,98387.55
2019-02-09T02:56:23.984Z,98382.80
2019-02-09T02:58:56.240Z,98373.50
2019-02-09T03:01:27.517Z,98374.80
2019-02-09T03:03:59.163Z,98382.53
2019-02-09T03:06:32.182Z,98387.16
2019-02-09T03:09:09.042Z,98382.08
2019-02-09T03:11:42.314Z,98384.17
2019-02-09T03:14:16.086Z,98382.07
2019-02-09T03:16:48.356Z,98370.64
2019-02-09T03:19:22.307Z,98377.33
2019-02-09T03:21:56.195Z,98372.22
2019-02-09T03:24:27.459Z,98371.23
2019-02-09T03:27:01.396Z,98366.97
2019-02-09T03:29:35.501Z,98370.97
2019-02-09T03:32:11.019Z,98360.17
2019-02-09T03:34:45.402Z,98366.09
2019-02-09T03:37:17.122Z,98368.09
2019-02-09T03:39:48.389Z,98376.31
2019-02-09T03:42:24.256Z,98375.66
2019-02-09T03:45:00.020Z,98373.92
2019-02-09T03:47:32.530Z,98369.34
2019-02-09T03:50:08.394Z,98370.52
2019-02-09T03:52:42.407Z,98374.64
2019-02-09T03:55:15.584Z,98377.13
2019-02-09T03:57:48.493Z,98374.52
2019-02-09T04:00:24.421Z,98370.95
2019-02-09T04:02:56.921Z,98369.37
2019-02-09T04:05:30.724Z,98371.53
2019-02-09T04:08:04.825Z,98369.59
2019-02-09T04:10:38.620Z,98373.00
2019-02-09T04:13:13.285Z,98373.88
2019-02-09T04:15:45.682Z,98363.36
2019-02-09T04:18:17.209Z,98382.94
2019-02-09T04:20:48.514Z,98380.38
2019-02-09T04:23:22.167Z,98386.59
2019-02-09T04:25:56.040Z,98386.59
2019-02-09T04:28:29.661Z,98386.41
2019-02-09T04:31:06.543Z,98384.58
2019-02-09T04:33:37.657Z,98382.80
2019-02-09T04:36:08.934Z,98375.28
2019-02-09T04:38:42.740Z,98390.79
2019-02-09T04:41:16.740Z,98388.64
2019-02-09T04:43:50.725Z,98396.62
2019-02-09T04:46:24.769Z,98383.86
2019-02-09T04:49:00.236Z,98389.72
2019-02-09T04:51:32.662Z,98398.89
2019-02-09T04:54:08.245Z,98397.38
2019-02-09T04:56:39.464Z,98402.13
2019-02-09T04:59:11.723Z,98384.13
2019-02-09T05:01:44.892Z,98396.89
2019-02-09T05:04:17.009Z,98392.48
2019-02-09T05:06:49.764Z,98395.91
2019-02-09T05:09:21.455Z,98390.34
2019-02-09T05:11:53.622Z,98407.56
2019-02-09T05:14:25.757Z,98394.96
2019-02-09T05:16:59.762Z,98389.39
2019-02-09T05:19:33.836Z,98404.48
2019-02-09T05:22:07.889Z,98393.38
2019-02-09T05:24:39.227Z,98394.98
2019-02-09T05:27:12.965Z,98396.98
2019-02-09T05:29:44.827Z,98405.03
2019-02-09T05:32:16.863Z,98399.63
2019-02-09T05:34:48.143Z,98402.92
2019-02-09T05:37:19.397Z,98403.94
2019-02-09T05:39:52.859Z,98406.36
2019-02-09T05:42:26.925Z,98397.20
2019-02-09T05:45:00.992Z,98403.55
2019-02-09T05:47:36.555Z,98411.41
2019-02-09T05:50:10.334Z,98415.72
2019-02-09T05:52:41.659Z,98405.90
2019-02-09T05:55:14.271Z,98406.91
2019-02-09T05:57:48.252Z,98415.06
2019-02-09T06:00:34.732Z,98405.41
2019-02-09T06:03:08.230Z,98401.67
2019-02-09T06:05:39.476Z,98408.24
2019-02-09T06:08:13.021Z,98401.08
2019-02-09T06:10:45.294Z,98402.38
2019-02-09T06:13:18.756Z,98409.91
2019-02-09T06:15:52.205Z,98409.61
2019-02-09T06:18:26.212Z,98411.89
2019-02-09T06:20:58.052Z,98415.83
2019-02-09T06:23:30.277Z,98405.23
2019-02-09T06:26:04.533Z,98409.66
2019-02-09T06:28:38.238Z,98422.74
2019-02-09T06:31:11.263Z,98413.23
2019-02-09T06:33:43.203Z,98407.34
2019-02-09T06:36:17.241Z,98411.41
2019-02-09T06:38:51.364Z,98416.94
2019-02-09T06:41:25.253Z,98415.12
2019-02-09T06:44:00.804Z,98415.12
2019-02-09T06:46:34.293Z,98406.91
2019-02-09T06:49:07.476Z,98419.18
2019-02-09T06:51:38.910Z,98420.95
2019-02-09T06:54:12.276Z,98418.77
2019-02-09T06:56:45.235Z,98421.85
2019-02-09T06:59:17.383Z,98428.37
2019-02-09T07:01:51.321Z,98421.08
2019-02-09T07:04:22.622Z,98414.64
2019-02-09T07:06:56.346Z,98411.61
2019-02-09T07:09:31.908Z,98411.08
2019-02-09T07:12:04.833Z,98405.12
2019-02-09T07:14:39.688Z,98402.44
2019-02-09T07:17:13.213Z,98410.98
2019-02-09T07:19:46.282Z,98392.26
2019-02-09T07:22:20.409Z,98410.36
2019-02-09T07:24:55.088Z,98416.69
2019-02-09T07:27:28.321Z,98424.61
2019-02-09T07:30:02.455Z,98421.11
2019-02-09T07:32:33.805Z,98418.38
2019-02-09T07:35:09.155Z,98413.66
2019-02-09T07:37:42.633Z,98430.13
2019-02-09T07:40:16.180Z,98427.04
2019-02-09T07:42:48.511Z,98418.81
2019-02-09T07:45:22.597Z,98415.71
2019-02-09T07:47:54.531Z,98421.16
2019-02-09T07:50:28.864Z,98427.18
2019-02-09T07:53:02.485Z,98423.41
2019-02-09T07:55:36.595Z,98408.19
2019-02-09T07:58:09.603Z,98423.80
2019-02-09T08:00:42.488Z,98430.66
2019-02-09T08:03:14.697Z,98437.86
2019-02-09T08:05:46.076Z,98460.86
2019-02-09T08:08:17.477Z,98437.97
2019-02-09T08:10:51.698Z,98455.85
2019-02-09T08:13:25.719Z,98456.91
2019-02-09T08:15:59.652Z,98457.20
2019-02-09T08:18:31.623Z,98468.02
2019-02-09T08:21:04.636Z,98473.24
2019-02-09T08:23:38.525Z,98460.00
2019-02-09T08:26:12.684Z,98489.98
2019-02-09T08:28:45.847Z,98476.09
2019-02-09T08:31:19.932Z,98469.05
2019-02-09T08:33:53.817Z,98442.44
2019-02-09T08:36:26.012Z,98444.73
2019-02-09T08:38:58.624Z,98467.68
2019-02-09T08:41:30.343Z,98446.94
2019-02-09T08:44:03.758Z,98455.08
2019-02-09T08:46:37.860Z,98450.27
2019-02-09T08:49:11.943Z,98470.75
2019-02-09T08:51:48.834Z,98470.53
2019-02-09T08:54:23.906Z,98497.34
2019-02-09T08:56:56.989Z,98485.25
2019-02-09T08:59:28.318Z,98517.69
2019-02-09T09:02:03.278Z,98511.42
2019-02-09T09:04:37.030Z,98560.37
2019-02-09T09:07:10.230Z,98517.98
2019-02-09T09:09:42.163Z,98535.22
2019-02-09T09:12:14.812Z,98556.62
2019-02-09T09:14:48.913Z,98550.28
2019-02-09T09:17:23.026Z,98561.14
2019-02-09T09:19:56.823Z,98592.37
2019-02-09T09:22:30.982Z,98591.07
2019-02-09T09:25:02.238Z,98608.89
2019-02-09T09:27:33.478Z,98601.96
2019-02-09T09:30:09.147Z,98611.97
2019-02-09T09:32:42.996Z,98625.75
2019-02-09T09:35:15.237Z,98641.84
2019-02-09T09:37:48.868Z,98651.41
2019-02-09T09:40:25.258Z,98647.25
2019-02-09T09:42:57.340Z,98650.28
2019-02-09T09:45:33.062Z,98645.39
2019-02-09T09:48:05.835Z,98642.66
2019-02-09T09:50:39.321Z,98645.73
2019-02-09T09:53:12.839Z,98655.97
2019-02-09T09:55:44.245Z,98659.02
2019-02-09T09:58:18.149Z,98657.22
2019-02-09T10:00:51.301Z,98672.69
2019-02-09T10:03:25.092Z,98670.44
2019-02-09T10:05:59.099Z,98667.20
2019-02-09T10:08:31.159Z,98667.80
2019-02-09T10:11:07.252Z,98668.19
2019-02-09T10:13:39.216Z,98662.90
2019-02-09T10:16:12.110Z,98650.59
2019-02-09T10:18:45.391Z,98655.94
2019-02-09T10:21:17.179Z,98646.31
2019-02-09T10:23:49.278Z,98648.81
2019-02-09T10:26:23.031Z,98644.87
2019-02-09T10:28:54.302Z,98645.61
2019-02-09T10:31:27.233Z,98646.47
2019-02-09T10:33:58.503Z,98643.17
2019-02-09T10:36:33.902Z,98639.78
2019-02-09T10:39:09.734Z,98637.26
2019-02-09T10:41:42.333Z,98645.94
2019-02-09T10:44:14.336Z,98635.09
2019-02-09T10:46:48.203Z,98637.46
2019-02-09T10:49:19.451Z,98631.77
2019-02-09T10:51:53.265Z,98632.88
2019-02-09T10:54:25.447Z,98627.51
2019-02-09T10:56:58.470Z,98615.13
2019-02-09T10:59:34.220Z,98623.70
2019-02-09T11:02:06.669Z,98611.90
2019-02-09T11:04:39.273Z,98619.34
2019-02-09T11:07:11.196Z,98614.75
2019-02-09T11:09:45.468Z,98612.67
2019-02-09T11:12:19.399Z,98609.31
2019-02-09T11:14:52.942Z,98607.09
2019-02-09T11:17:26.975Z,98600.81
2019-02-09T11:20:00.543Z,98593.73
2019-02-09T11:22:31.840Z,98600.14
2019-02-09T11:25:03.351Z,98597.97
2019-02-09T11:27:36.571Z,98590.89
2019-02-09T11:30:13.998Z,98588.51
2019-02-09T11:32:45.558Z,98589.95
2019-02-09T11:35:18.685Z,98599.67
2019-02-09T11:37:51.660Z,98596.56
2019-02-09T11:40:23.885Z,98585.16
2019-02-09T11:42:58.346Z,98586.56
2019-02-09T11:45:32.345Z,98592.17
2019-02-09T11:48:06.257Z,98589.33
2019-02-09T11:50:38.514Z,98589.67
2019-02-09T11:53:10.642Z,98591.19
2019-02-09T11:55:42.739Z,98585.59
2019-02-09T11:58:16.223Z,98595.86
2019-02-09T12:00:51.987Z,98580.48
2019-02-09T12:03:23.574Z,98575.30
2019-02-09T12:05:57.664Z,98563.95
2019-02-09T12:08:31.699Z,98561.02
2019-02-09T12:11:05.651Z,98550.70
2019-02-09T12:13:39.504Z,98541.48
2019-02-09T12:16:15.280Z,98546.06
2019-02-09T12:18:48.659Z,98539.39
2019-02-09T12:21:20.730Z,98541.39
2019-02-09T12:23:54.693Z,98553.97
2019-02-09T12:26:26.079Z,98553.97
2019-02-09T12:28:57.354Z,98545.30
2019-02-09T12:31:30.880Z,98548.16
2019-02-09T12:34:04.950Z,98544.50
2019-02-09T12:36:40.444Z,98540.67
2019-02-09T12:39:12.832Z,98539.84
2019-02-09T12:41:45.811Z,98533.91
2019-02-09T12:44:17.884Z,98527.39
2019-02-09T12:46:49.175Z,98524.11
2019-02-09T12:49:22.844Z,98527.60
2019-02-09T12:51:56.855Z,98521.91
2019-02-09T12:54:28.922Z,98526.85
2019-02-09T12:57:01.798Z,98522.56
2019-02-09T12:59:35.896Z,98529.77
2019-02-09T13:02:08.789Z,98535.64
2019-02-09T13:04:40.153Z,98524.75
2019-02-09T13:07:12.417Z,98533.89
2019-02-09T13:09:45.933Z,98436.05
2019-02-09T13:12:18.968Z,98519.69
2019-02-09T13:14:56.936Z,98526.85
2019-02-09T13:17:28.885Z,98523.36
2019-02-09T13:20:02.798Z,98525.92
2019-02-09T13:22:35.121Z,98525.55
2019-02-09T13:25:09.236Z,98530.30
2019-02-09T13:27:40.476Z,98530.09
2019-02-09T13:30:20.764Z,98529.02
2019-02-09T13:32:54.220Z,98526.73
2019-02-09T13:35:28.289Z,98519.87
2019-02-09T13:38:02.062Z,98526.95
2019-02-09T13:40:36.012Z,98523.73
2019-02-09T13:43:09.179Z,98529.23
2019-02-09T13:45:43.419Z,98525.29
2019-02-09T13:48:15.101Z,98534.64
2019-02-09T13:50:50.741Z,98535.16
2019-02-09T13:53:23.067Z,98524.55
2019-02-09T13:55:56.245Z,98527.39
2019-02-09T13:58:30.154Z,98531.72
2019-02-09T14:01:01.637Z,98526.38
2019-02-09T14:03:32.881Z,98532.38
2019-02-09T14:06:08.363Z,98528.39
2019-02-09T14:08:39.549Z,98534.75
2019-02-09T14:11:11.187Z,98529.02
2019-02-09T14:13:43.179Z,98530.64
2019-02-09T14:16:16.280Z,98531.67
2019-02-09T14:18:49.244Z,98522.51
2019-02-09T14:21:21.249Z,98522.51
2019-02-09T14:23:56.949Z,98524.28
2019-02-09T14:26:29.334Z,98538.53
2019-02-09T14:29:03.279Z,98543.18
2019-02-09T14:31:37.542Z,98552.08
2019-02-09T14:34:11.658Z,98562.52
2019-02-09T14:36:43.283Z,98569.13
2019-02-09T14:39:16.322Z,98569.91
2019-02-09T14:41:47.579Z,98576.47
2019-02-09T14:44:21.264Z,98579.28
2019-02-09T14:46:55.491Z,98579.28
2019-02-09T14:49:29.395Z,98582.55
2019-02-09T14:52:01.447Z,98590.13
2019-02-09T14:54:34.346Z,98591.30
2019-02-09T14:57:08.562Z,98592.53
2019-02-09T14:59:39.982Z,98587.46
2019-02-09T15:02:13.367Z,98584.23
2019-02-09T15:04:47.378Z,98584.97
2019-02-09T15:07:18.665Z,98583.08
2019-02-09T15:09:52.354Z,98577.20
2019-02-09T15:12:24.488Z,98583.55
2019-02-09T15:14:57.430Z,98578.99
2019-02-09T15:17:31.346Z,98578.59
2019-02-09T15:20:02.614Z,98571.86
2019-02-09T15:22:36.370Z,98565.63
2019-02-09T15:25:10.583Z,98566.04
2019-02-09T15:27:45.197Z,98571.57
2019-02-09T15:30:21.282Z,98567.27
2019-02-09T15:32:52.621Z,98569.28
2019-02-09T15:35:26.538Z,98569.42
2019-02-09T15:38:00.557Z,98569.02
2019-02-09T15:40:33.702Z,98576.59
2019-02-09T15:43:05.764Z,98572.95
2019-02-09T15:45:38.575Z,98582.14
2019-02-09T15:48:12.679Z,98583.83
2019-02-09T15:50:44.235Z,98580.64
2019-02-09T15:53:19.375Z,98592.13
2019-02-09T15:55:51.753Z,98598.28
2019-02-09T15:58:25.841Z,98590.35
2019-02-09T16:00:59.796Z,98596.20
2019-02-09T16:03:33.707Z,98599.19
2019-02-09T16:06:05.154Z,98602.67
2019-02-09T16:08:38.741Z,98604.33
2019-02-09T16:11:10.695Z,98609.08
2019-02-09T16:13:45.886Z,98610.44
2019-02-09T16:16:17.603Z,98603.95
2019-02-09T16:18:51.608Z,98602.80
2019-02-09T16:21:25.709Z,98602.70
2019-02-09T16:23:57.002Z,98612.97
2019-02-09T16:26:31.394Z,98620.04
2019-02-09T16:29:04.718Z,98614.60
2019-02-09T16:31:36.148Z,98623.81
2019-02-09T16:34:09.846Z,98620.78
2019-02-09T16:36:42.721Z,98622.92
2019-02-09T16:39:14.932Z,98624.45
2019-02-09T16:41:46.183Z,98617.77
2019-02-09T16:44:19.718Z,98615.28
2019-02-09T16:46:52.095Z,98611.95
2019-02-09T16:49:24.914Z,98611.30
2019-02-09T16:52:00.849Z,98608.23
2019-02-09T16:54:32.898Z,98607.52
2019-02-09T16:57:05.964Z,98604.70
2019-02-09T16:59:39.770Z,98610.16
2019-02-09T17:02:11.442Z,98593.22
2019-02-09T17:04:42.741Z,98616.77
2019-02-09T17:07:16.094Z,98621.48
2019-02-09T17:09:49.933Z,98623.82
2019-02-09T17:12:24.028Z,98617.87
2019-02-09T17:14:58.196Z,98626.75
2019-02-09T17:17:32.045Z,98627.19
2019-02-09T17:20:03.299Z,98619.41
2019-02-09T17:22:34.548Z,98626.73
2019-02-09T17:25:08.575Z,98626.14
2019-02-09T17:27:40.100Z,98629.53
2019-02-09T17:30:22.418Z,98620.70
2019-02-09T17:32:53.912Z,98632.03
2019-02-09T17:35:27.117Z,98622.15
2019-02-09T17:38:01.355Z,98624.21
2019-02-09T17:40:37.456Z,98634.52
2019-02-09T17:43:09.963Z,98634.65
2019-02-09T17:45:52.235Z,98637.73
2019-02-09T17:48:26.210Z,98641.61
2019-02-09T17:51:00.276Z,98634.77
2019-02-09T17:53:31.961Z,98631.53
2019-02-09T17:56:03.215Z,98640.22
2019-02-09T17:58:36.332Z,98648.35
2019-02-09T18:01:11.257Z,98649.59
2019-02-09T18:03:43.141Z,98649.32
2019-02-09T18:06:15.265Z,98645.98
2019-02-09T18:08:49.292Z,98648.08
2019-02-09T18:11:24.902Z,98648.06
2019-02-09T18:13:57.329Z,98645.05
2019-02-09T18:16:30.789Z,98646.72
2019-02-09T18:19:03.290Z,98647.05
2019-02-09T18:21:37.388Z,98647.79
2019-02-09T18:24:10.289Z,98651.33
2019-02-09T18:26:43.467Z,98648.55
2019-02-09T18:29:16.160Z,98647.95
2019-02-09T18:31:49.359Z,98645.88
2019-02-09T18:34:23.414Z,98645.98
2019-02-09T18:36:55.479Z,98649.36
2019-02-09T18:39:28.418Z,98652.83
2019-02-09T18:42:02.407Z,98650.38
2019-02-09T18:44:36.354Z,98649.30
2019-02-09T18:47:08.239Z,98646.42
2019-02-09T18:49:39.922Z,98662.52
2019-02-09T18:52:12.447Z,98661.57
2019-02-09T18:54:46.778Z,98665.14
2019-02-09T18:57:20.554Z,98664.05
2019-02-09T18:59:52.527Z,98668.19
2019-02-09T19:02:25.100Z,98671.16
2019-02-09T19:05:03.209Z,98669.34
2019-02-09T19:07:30.542Z,98676.27
2019-02-09T19:10:04.211Z,98676.08
2019-02-09T19:12:35.550Z,98669.06
2019-02-09T19:15:08.518Z,98679.53
2019-02-09T19:17:40.059Z,98679.85
2019-02-09T19:20:18.983Z,98689.91
2019-02-09T19:22:51.865Z,98682.80
2019-02-09T19:25:23.759Z,98681.01
2019-02-09T19:27:56.740Z,98686.78
2019-02-09T19:30:31.452Z,98688.73
2019-02-09T19:33:05.492Z,98688.72
2019-02-09T19:35:38.667Z,98691.98
2019-02-09T19:38:12.728Z,98689.45
2019-02-09T19:40:43.981Z,98689.53
2019-02-09T19:43:17.714Z,98690.44
2019-02-09T19:45:51.735Z,98690.65
2019-02-09T19:48:27.350Z,98686.59
2019-02-09T19:50:59.776Z,98686.09
2019-02-09T19:53:33.702Z,98695.21
2019-02-09T19:56:05.213Z,98694.62
2019-02-09T19:58:38.792Z,98696.05
2019-02-09T20:01:12.809Z,98691.78
2019-02-09T20:03:48.386Z,98698.77
2019-02-09T20:06:21.832Z,98690.46
2019-02-09T20:08:54.622Z,98692.77
2019-02-09T20:11:25.905Z,98691.47
2019-02-09T20:13:59.938Z,98700.58
2019-02-09T20:16:32.817Z,98702.41
2019-02-09T20:19:06.812Z,98705.16
2019-02-09T20:21:40.137Z,98694.08
2019-02-09T20:24:11.920Z,98695.88
2019-02-09T20:26:43.813Z,98695.14
2019-02-09T20:29:15.103Z,98695.04
2019-02-09T20:31:46.818Z,98689.92
2019-02-09T20:34:18.471Z,98689.03
2019-02-09T20:36:51.990Z,98690.20
2019-02-09T20:39:26.029Z,98697.72
2019-02-09T20:42:00.032Z,98695.27
2019-02-09T20:44:33.918Z,98686.86
2019-02-09T20:47:07.983Z,98686.55
2019-02-09T20:49:39.251Z,98697.72
2019-02-09T20:52:13.094Z,98692.09
2019-02-09T20:54:46.993Z,98695.45
2019-02-09T20:57:22.579Z,98685.51
2019-02-09T20:59:55.022Z,98699.11
2019-02-09T21:02:28.762Z,98696.16
2019-02-09T21:05:00.859Z,98699.28
2019-02-09T21:07:34.058Z,98700.92
2019-02-09T21:10:11.672Z,98696.69
2019-02-09T21:12:43.426Z,98691.13
2019-02-09T21:15:15.762Z,98690.73
2019-02-09T21:17:49.249Z,98686.93
2019-02-09T21:20:23.105Z,98698.75
2019-02-09T21:22:57.203Z,98695.90
2019-02-09T21:25:32.806Z,98698.16
2019-02-09T21:28:04.461Z,98702.16
2019-02-09T21:30:37.220Z,98704.37
2019-02-09T21:33:09.282Z,98700.52
2019-02-09T21:35:44.186Z,98702.48
2019-02-09T21:38:14.096Z,98701.88
2019-02-09T21:40:45.383Z,98705.06
2019-02-09T21:43:20.789Z,98714.87
2019-02-09T21:45:53.201Z,98706.86
2019-02-09T21:48:27.270Z,98697.20
2019-02-09T21:51:01.223Z,98705.92
2019-02-09T21:53:35.424Z,98700.27
2019-02-09T21:56:09.195Z,98700.68
2019-02-09T21:58:40.622Z,98693.81
2019-02-09T22:01:13.229Z,98690.42
2019-02-09T22:03:46.414Z,98692.38
2019-02-09T22:06:18.303Z,98688.11
2019-02-09T22:08:52.218Z,98694.89
2019-02-09T22:11:23.663Z,98695.69
2019-02-09T22:13:57.340Z,98686.80
2019-02-09T22:16:31.350Z,98686.80
2019-02-09T22:19:05.436Z,98682.67
2019-02-09T22:21:39.732Z,98681.96
2019-02-09T22:24:12.976Z,98682.40
2019-02-09T22:26:44.276Z,98679.78
2019-02-09T22:29:17.434Z,98674.95
2019-02-09T22:31:51.343Z,98674.40
2019-02-09T22:34:25.446Z,98671.60
2019-02-09T22:36:59.447Z,98671.64
2019-02-09T22:39:33.267Z,98682.29
2019-02-09T22:42:04.664Z,98677.70
2019-02-09T22:44:38.500Z,98684.42
2019-02-09T22:47:12.557Z,98685.21
2019-02-09T22:49:46.626Z,98681.69
2019-02-09T22:52:19.501Z,98685.14
2019-02-09T22:54:50.872Z,98685.84
2019-02-09T22:57:22.504Z,98686.34
2019-02-09T22:59:55.455Z,98682.83
2019-02-09T23:02:28.296Z,98681.87
2019-02-09T23:05:41.650Z,98692.34
2019-02-09T23:08:13.481Z,98691.09
2019-02-09T23:10:44.754Z,98696.80
2019-02-09T23:13:18.915Z,98703.00
2019-02-09T23:15:52.739Z,98704.63
2019-02-09T23:18:24.214Z,98700.48
2019-02-09T23:20:56.665Z,98709.50
2019-02-09T23:23:31.217Z,98711.22
2019-02-09T23:26:04.677Z,98705.45
2019-02-09T23:28:36.164Z,98702.49
2019-02-09T23:31:07.588Z,98707.45
2019-02-09T23:33:40.158Z,98710.67
2019-02-09T23:36:16.299Z,98705.87
2019-02-09T23:38:45.040Z,98716.60
2019-02-09T23:41:16.716Z,98700.57
2019-02-09T23:43:48.652Z,98712.89
2019-02-09T23:46:20.602Z,98695.27
2019-02-09T23:48:53.790Z,98702.84
2019-02-09T23:51:25.839Z,98697.26
2019-02-09T23:53:58.645Z,98702.53
2019-02-09T23:56:29.952Z,98699.89
2019-02-09T23:59:02.580Z,98697.47
